Kerby Knob, Kentucky
Current Conditions -  °F | °C
As of 11:35 AM on Friday 31 Oct 2014 (Local Time) from KI39 Reporting Station
Overcast Overcast  
Wind Chill:   Ceiling: 2800
Heat Index:   Visibility: 5mi
Dew Point:   Wind: 3mph
Humidity: 87%   Direction: 270°W
Pressure: 29.98"   Gusts: NA
Location:  37.4446°N, 84.0227°W
Report Text: KI39 311535Z AUTO 27003KT 5SM SCT006 OVC028 07/05 A2998 RMK AO2
Loading
Personal Weather Stations






























Interactive Weather Map
Tropical Storm Tracking
New forecast layout! Learn more

10-Day Weather Forecast

Advertisements
Track Severe Weather on mobile